createdAt,value
2022-07-27T00:00:57.872Z,14.65
2022-07-27T00:03:38.189Z,14.58
2022-07-27T00:06:17.368Z,14.57
2022-07-27T00:08:57.224Z,14.59
2022-07-27T00:11:36.975Z,14.41
2022-07-27T00:14:16.895Z,14.42
2022-07-27T00:16:58.646Z,14.32
2022-07-27T00:19:38.109Z,14.35
2022-07-27T00:22:17.989Z,14.41
2022-07-27T00:24:59.675Z,14.40
2022-07-27T00:27:41.085Z,14.35
2022-07-27T00:30:22.678Z,14.29
2022-07-27T00:33:05.501Z,14.37
2022-07-27T00:35:45.169Z,14.39
2022-07-27T00:38:25.107Z,14.39
2022-07-27T00:41:04.867Z,14.40
2022-07-27T00:43:55.278Z,14.41
2022-07-27T00:46:35.952Z,14.41
2022-07-27T00:49:17.098Z,14.44
2022-07-27T00:51:56.612Z,14.44
2022-07-27T00:54:38.386Z,14.35
2022-07-27T00:57:18.099Z,14.33
2022-07-27T00:59:57.656Z,14.26
2022-07-27T01:02:37.846Z,14.27
2022-07-27T01:05:36.468Z,14.25
2022-07-27T01:08:19.749Z,14.18
2022-07-27T01:11:00.157Z,14.10
2022-07-27T01:14:01.413Z,14.07
2022-07-27T01:16:41.937Z,14.02
2022-07-27T01:19:22.583Z,13.83
2022-07-27T01:22:02.465Z,13.79
2022-07-27T01:24:42.211Z,13.84
2022-07-27T01:27:24.256Z,13.87
2022-07-27T01:30:03.414Z,13.85
2022-07-27T01:32:43.517Z,13.93
2022-07-27T01:35:22.996Z,13.96
2022-07-27T01:38:03.010Z,13.95
2022-07-27T01:40:42.646Z,13.92
2022-07-27T01:43:24.694Z,13.93
2022-07-27T01:46:04.437Z,13.94
2022-07-27T01:48:45.744Z,13.88
2022-07-27T01:51:25.184Z,13.86
2022-07-27T01:54:04.250Z,13.88
2022-07-27T01:56:44.712Z,13.86
2022-07-27T01:59:24.473Z,13.85
2022-07-27T02:02:04.335Z,13.76
2022-07-27T02:04:46.190Z,13.80
2022-07-27T02:07:25.594Z,13.77
2022-07-27T02:10:08.327Z,13.68
2022-07-27T02:12:48.364Z,13.69
2022-07-27T02:15:43.344Z,13.65
2022-07-27T02:18:33.115Z,13.57
2022-07-27T02:21:18.629Z,13.53
2022-07-27T02:24:00.075Z,13.47
2022-07-27T02:26:39.725Z,13.48
2022-07-27T02:29:19.241Z,13.53
2022-07-27T02:31:58.948Z,13.52
2022-07-27T02:34:38.820Z,13.47
2022-07-27T02:37:18.586Z,13.36
2022-07-27T02:39:58.415Z,13.32
2022-07-27T02:42:40.243Z,13.27
2022-07-27T02:45:22.318Z,13.33
2022-07-27T02:48:01.435Z,13.29
2022-07-27T02:50:40.889Z,13.21
2022-07-27T02:53:22.661Z,13.14
2022-07-27T02:56:02.025Z,13.07
2022-07-27T02:58:44.099Z,13.01
2022-07-27T03:01:24.975Z,13.05
2022-07-27T03:04:07.277Z,13.01
2022-07-27T03:06:47.729Z,12.96
2022-07-27T03:09:33.123Z,13.00
2022-07-27T03:12:13.719Z,12.97
2022-07-27T03:14:53.541Z,13.02
2022-07-27T03:17:33.798Z,12.95
2022-07-27T03:20:13.431Z,12.95
2022-07-27T03:22:55.139Z,12.87
2022-07-27T03:26:09.428Z,12.75
2022-07-27T03:28:50.053Z,12.70
2022-07-27T03:31:29.902Z,12.66
2022-07-27T03:34:09.637Z,12.64
2022-07-27T03:36:48.333Z,12.65
2022-07-27T03:39:27.597Z,12.69
2022-07-27T03:42:10.028Z,12.73
2022-07-27T03:44:51.902Z,12.82
2022-07-27T03:47:31.829Z,12.83
2022-07-27T03:50:13.668Z,12.83
2022-07-27T03:52:53.273Z,12.83
2022-07-27T03:55:32.901Z,12.88
2022-07-27T03:58:12.685Z,12.96
2022-07-27T04:01:03.242Z,12.98
2022-07-27T04:03:44.442Z,13.01
2022-07-27T04:06:25.759Z,12.97
2022-07-27T04:09:09.155Z,13.00
2022-07-27T04:12:20.403Z,13.01
2022-07-27T04:15:04.726Z,13.05
2022-07-27T04:17:55.306Z,13.06
2022-07-27T04:20:39.442Z,13.06
2022-07-27T04:23:20.836Z,13.04
2022-07-27T04:26:00.255Z,13.01
2022-07-27T04:28:42.104Z,12.96
2022-07-27T04:31:21.750Z,12.94
2022-07-27T04:34:03.285Z,13.00
2022-07-27T04:36:42.723Z,13.00
2022-07-27T04:39:24.792Z,12.96
2022-07-27T04:42:08.204Z,13.05
2022-07-27T04:44:48.676Z,13.11
2022-07-27T04:47:28.307Z,13.21
2022-07-27T04:50:10.011Z,13.15
2022-07-27T04:52:48.341Z,13.23
2022-07-27T04:55:27.771Z,13.28
2022-07-27T04:58:07.531Z,13.38
2022-07-27T05:00:47.487Z,13.45
2022-07-27T05:03:30.009Z,13.50
2022-07-27T05:06:12.184Z,13.60
2022-07-27T05:08:53.568Z,13.67
2022-07-27T05:11:32.990Z,13.78
2022-07-27T05:14:12.811Z,13.88
2022-07-27T05:16:52.642Z,13.98
2022-07-27T05:19:43.180Z,14.00
2022-07-27T05:22:23.682Z,14.10
2022-07-27T05:25:06.177Z,14.20
2022-07-27T05:27:54.668Z,14.30
2022-07-27T05:30:34.487Z,14.40
2022-07-27T05:33:16.274Z,14.54
2022-07-27T05:35:55.911Z,14.66
2022-07-27T05:38:39.382Z,14.77
2022-07-27T05:41:24.728Z,14.86
2022-07-27T05:44:04.771Z,14.95
2022-07-27T05:46:44.422Z,15.06
2022-07-27T05:49:25.664Z,15.08
2022-07-27T05:52:07.680Z,15.25
2022-07-27T05:54:48.946Z,15.40
2022-07-27T05:57:28.290Z,15.51
2022-07-27T06:00:19.153Z,15.55
2022-07-27T06:02:59.291Z,15.65
2022-07-27T06:05:39.126Z,15.68
2022-07-27T06:08:20.923Z,15.81
2022-07-27T06:11:02.390Z,15.91
2022-07-27T06:13:42.554Z,15.96
2022-07-27T06:16:24.358Z,16.01
2022-07-27T06:19:06.027Z,16.12
2022-07-27T06:21:51.587Z,16.10
2022-07-27T06:24:34.500Z,16.25
2022-07-27T06:27:15.205Z,16.30
2022-07-27T06:29:55.029Z,16.41
2022-07-27T06:32:35.108Z,16.52
2022-07-27T06:35:15.103Z,16.68
2022-07-27T06:37:54.827Z,16.80
2022-07-27T06:40:36.391Z,16.86
2022-07-27T06:43:17.777Z,17.06
2022-07-27T06:45:58.175Z,17.16
2022-07-27T06:48:41.082Z,17.25
2022-07-27T06:51:21.691Z,17.50
2022-07-27T06:54:01.295Z,17.72
2022-07-27T06:56:41.062Z,17.96
2022-07-27T06:59:22.861Z,18.29
2022-07-27T07:02:02.261Z,18.70
2022-07-27T07:04:42.067Z,19.13
2022-07-27T07:07:22.106Z,19.23
2022-07-27T07:10:01.632Z,19.48
2022-07-27T07:12:41.715Z,19.84
2022-07-27T07:15:24.700Z,20.19
2022-07-27T07:18:06.692Z,20.50
2022-07-27T07:20:48.382Z,20.66
2022-07-27T07:23:28.829Z,20.74
2022-07-27T07:26:10.736Z,21.12
2022-07-27T07:28:50.072Z,21.47
2022-07-27T07:31:28.650Z,21.85
2022-07-27T07:34:10.087Z,22.25
2022-07-27T07:36:49.366Z,22.63
2022-07-27T07:39:31.764Z,22.92
2022-07-27T07:42:12.334Z,23.05
2022-07-27T07:44:51.975Z,23.43
2022-07-27T07:47:33.919Z,23.97
2022-07-27T07:50:13.192Z,24.08
2022-07-27T07:52:54.515Z,24.29
2022-07-27T07:55:35.408Z,24.65
2022-07-27T07:58:15.876Z,24.85
2022-07-27T08:00:56.895Z,24.86
2022-07-27T08:03:37.017Z,25.12
2022-07-27T08:06:16.903Z,25.12
2022-07-27T08:08:56.730Z,25.21
2022-07-27T08:11:36.610Z,25.32
2022-07-27T08:14:16.326Z,25.32
2022-07-27T08:16:59.139Z,25.61
2022-07-27T08:19:40.377Z,25.72
2022-07-27T08:22:39.908Z,26.27
2022-07-27T08:25:19.528Z,26.31
2022-07-27T08:28:00.113Z,26.60
2022-07-27T08:30:44.358Z,26.73
2022-07-27T08:33:27.392Z,26.69
2022-07-27T08:36:07.924Z,26.76
2022-07-27T08:38:50.222Z,27.10
2022-07-27T08:41:30.446Z,27.66
2022-07-27T08:44:14.237Z,27.69
2022-07-27T08:46:54.547Z,27.93
2022-07-27T08:49:43.126Z,28.19
2022-07-27T08:52:23.450Z,28.07
2022-07-27T08:55:03.329Z,28.11
2022-07-27T08:57:42.808Z,27.84
2022-07-27T09:00:23.472Z,27.32
2022-07-27T09:03:06.537Z,27.46
2022-07-27T09:05:48.640Z,27.78
2022-07-27T09:08:31.682Z,27.69
2022-07-27T09:11:26.512Z,27.53
2022-07-27T09:14:08.502Z,27.53
2022-07-27T09:19:58.437Z,27.65
2022-07-27T09:22:43.163Z,27.18
2022-07-27T09:26:00.459Z,27.50
2022-07-27T09:28:31.530Z,27.65
2022-07-27T09:31:14.080Z,28.02
2022-07-27T09:33:56.233Z,28.40
2022-07-27T09:36:50.644Z,28.16
2022-07-27T09:39:35.138Z,28.20
2022-07-27T09:43:05.774Z,28.08
2022-07-27T09:45:32.647Z,28.10
2022-07-27T09:48:27.113Z,28.47
2022-07-27T09:51:55.816Z,28.62
2022-07-27T09:54:09.877Z,28.69
2022-07-27T09:57:00.486Z,28.54
2022-07-27T09:59:40.011Z,28.48
2022-07-27T10:02:19.720Z,28.27
2022-07-27T10:04:59.589Z,28.16
2022-07-27T10:07:39.230Z,28.00
2022-07-27T10:10:20.532Z,28.18
2022-07-27T10:13:00.416Z,28.27
2022-07-27T10:15:41.233Z,28.34
2022-07-27T10:18:28.898Z,28.14
2022-07-27T10:21:11.563Z,27.72
2022-07-27T10:23:58.585Z,27.43
2022-07-27T10:26:39.735Z,27.10
2022-07-27T10:29:20.292Z,27.00
2022-07-27T10:32:02.255Z,26.88
2022-07-27T10:34:44.373Z,26.84
2022-07-27T10:37:28.550Z,26.63
2022-07-27T10:40:27.624Z,26.35
2022-07-27T10:43:11.588Z,26.01
2022-07-27T10:46:02.614Z,26.07
2022-07-27T10:48:49.162Z,25.69
2022-07-27T10:51:36.775Z,25.61
2022-07-27T10:54:23.458Z,25.65
2022-07-27T10:57:06.488Z,25.64
2022-07-27T11:00:11.991Z,25.71
2022-07-27T11:02:52.242Z,25.64
2022-07-27T11:05:59.171Z,25.56
2022-07-27T11:08:38.321Z,25.60
2022-07-27T11:11:26.290Z,25.60
2022-07-27T11:14:06.725Z,25.76
2022-07-27T11:16:55.901Z,25.94
2022-07-27T11:19:35.830Z,26.09
2022-07-27T11:22:28.825Z,26.41
2022-07-27T11:25:09.065Z,26.63
2022-07-27T11:27:50.789Z,26.83
2022-07-27T11:30:29.968Z,27.21
2022-07-27T11:33:09.303Z,26.97
2022-07-27T11:35:54.082Z,26.83
2022-07-27T11:38:52.647Z,26.85
2022-07-27T11:42:09.081Z,26.53
2022-07-27T11:44:38.630Z,26.39
2022-07-27T11:47:24.001Z,26.28
2022-07-27T11:50:17.245Z,26.02
2022-07-27T11:53:01.979Z,25.82
2022-07-27T11:55:49.520Z,26.01
2022-07-27T11:58:28.829Z,25.97
2022-07-27T12:01:08.540Z,25.85
2022-07-27T12:03:48.365Z,25.83
2022-07-27T12:06:28.244Z,25.77
2022-07-27T12:09:09.353Z,25.58
2022-07-27T12:12:09.097Z,25.70
2022-07-27T12:14:51.013Z,25.83
2022-07-27T12:17:34.248Z,25.77
2022-07-27T12:20:35.453Z,25.71
2022-07-27T12:23:16.956Z,25.69
2022-07-27T12:25:56.582Z,25.89
2022-07-27T12:28:34.944Z,26.05
2022-07-27T12:31:19.916Z,26.31
2022-07-27T12:34:06.208Z,26.39
2022-07-27T12:36:48.480Z,26.65
2022-07-27T12:39:29.104Z,26.61
2022-07-27T12:42:10.977Z,26.30
2022-07-27T12:44:54.273Z,26.36
2022-07-27T12:47:41.477Z,26.30
2022-07-27T12:50:29.462Z,25.86
2022-07-27T12:53:13.237Z,25.68
2022-07-27T12:55:55.637Z,25.58
2022-07-27T12:58:37.261Z,25.67
2022-07-27T13:01:17.145Z,25.71
2022-07-27T13:03:57.051Z,25.68
2022-07-27T13:06:36.720Z,25.81
2022-07-27T13:09:16.953Z,25.77
2022-07-27T13:12:02.794Z,25.94
2022-07-27T13:14:43.392Z,25.91
2022-07-27T13:17:25.028Z,26.16
2022-07-27T13:20:09.744Z,26.30
2022-07-27T13:22:53.468Z,26.60
2022-07-27T13:25:33.048Z,26.38
2022-07-27T13:28:13.185Z,26.52
2022-07-27T13:30:53.309Z,26.62
2022-07-27T13:33:37.758Z,26.61
2022-07-27T13:36:17.112Z,26.58
2022-07-27T13:38:56.605Z,26.50
2022-07-27T13:41:39.556Z,26.33
2022-07-27T13:44:49.976Z,26.30
2022-07-27T13:47:22.830Z,26.12
2022-07-27T13:50:04.956Z,26.03
2022-07-27T13:52:44.784Z,26.13
2022-07-27T13:55:32.625Z,25.88
2022-07-27T13:58:25.000Z,25.73
2022-07-27T14:01:07.682Z,25.62
2022-07-27T14:03:52.275Z,25.71
2022-07-27T14:06:40.123Z,25.70
2022-07-27T14:09:21.876Z,25.65
2022-07-27T14:12:03.550Z,25.56
2022-07-27T14:14:43.771Z,25.52
2022-07-27T14:17:23.904Z,25.41
2022-07-27T14:20:03.386Z,25.40
2022-07-27T14:22:43.157Z,25.15
2022-07-27T14:26:05.642Z,25.15
2022-07-27T14:28:46.885Z,25.03
2022-07-27T14:31:27.115Z,24.85
2022-07-27T14:34:09.787Z,24.80
2022-07-27T14:36:49.376Z,24.59
2022-07-27T14:39:31.133Z,24.38
2022-07-27T14:42:11.413Z,24.37
2022-07-27T14:44:51.894Z,24.19
2022-07-27T14:47:32.341Z,23.93
2022-07-27T14:50:28.169Z,23.89
2022-07-27T14:53:07.862Z,23.89
2022-07-27T14:55:47.607Z,23.81
2022-07-27T14:58:27.732Z,23.70
2022-07-27T15:01:07.338Z,23.59
2022-07-27T15:03:49.204Z,23.49
2022-07-27T15:06:27.386Z,23.47
2022-07-27T15:09:08.711Z,23.37
2022-07-27T15:11:48.091Z,23.27
2022-07-27T15:14:28.125Z,23.19
2022-07-27T15:17:09.684Z,23.15
2022-07-27T15:19:51.676Z,23.11
2022-07-27T15:22:32.274Z,23.01
2022-07-27T15:25:13.916Z,22.92
2022-07-27T15:27:53.400Z,22.83
2022-07-27T15:30:38.194Z,22.91
2022-07-27T15:33:19.346Z,22.93
2022-07-27T15:35:59.205Z,22.90
2022-07-27T15:38:52.307Z,22.93
2022-07-27T15:41:34.583Z,22.87
2022-07-27T15:44:15.160Z,22.91
2022-07-27T15:46:55.316Z,22.86
2022-07-27T15:49:36.741Z,22.92
2022-07-27T15:52:16.117Z,22.90
2022-07-27T15:54:56.809Z,22.93
2022-07-27T15:57:37.465Z,22.87
2022-07-27T16:00:17.439Z,22.87
2022-07-27T16:02:58.598Z,22.81
2022-07-27T16:05:41.750Z,22.83
2022-07-27T16:08:21.687Z,22.78
2022-07-27T16:11:01.489Z,22.78
2022-07-27T16:13:41.377Z,22.70
2022-07-27T16:16:25.537Z,22.70
2022-07-27T16:19:13.366Z,22.65
2022-07-27T16:21:55.019Z,22.74
2022-07-27T16:24:39.106Z,22.68
2022-07-27T16:27:21.317Z,22.67
2022-07-27T16:30:02.677Z,22.61
2022-07-27T16:32:44.064Z,22.50
2022-07-27T16:35:24.448Z,22.61
2022-07-27T16:38:05.027Z,22.64
2022-07-27T16:40:44.700Z,22.63
2022-07-27T16:43:23.267Z,22.54
2022-07-27T16:46:18.479Z,22.55
2022-07-27T16:48:58.572Z,22.56
2022-07-27T16:51:38.444Z,22.56
2022-07-27T16:54:18.186Z,22.54
2022-07-27T16:56:58.888Z,22.43
2022-07-27T16:59:41.521Z,22.42
2022-07-27T17:02:22.846Z,22.31
2022-07-27T17:05:02.225Z,22.21
2022-07-27T17:07:42.784Z,21.97
2022-07-27T17:10:26.973Z,21.95
2022-07-27T17:13:13.534Z,21.91
2022-07-27T17:15:54.431Z,21.81
2022-07-27T17:18:39.850Z,21.73
2022-07-27T17:21:20.254Z,21.72
2022-07-27T17:24:00.088Z,21.80
2022-07-27T17:26:39.856Z,21.73
2022-07-27T17:29:19.641Z,21.70
2022-07-27T17:31:59.454Z,21.64
2022-07-27T17:34:41.044Z,21.59
2022-07-27T17:37:20.753Z,21.42
2022-07-27T17:40:00.511Z,21.37
2022-07-27T17:42:42.329Z,21.36
2022-07-27T17:45:21.778Z,21.37
2022-07-27T17:48:01.525Z,21.32
2022-07-27T17:50:43.355Z,21.15
2022-07-27T17:53:24.516Z,20.99
2022-07-27T17:56:24.979Z,20.93
2022-07-27T17:59:20.410Z,20.97
2022-07-27T18:02:05.578Z,20.80
2022-07-27T18:04:47.479Z,20.73
2022-07-27T18:07:28.178Z,20.68
2022-07-27T18:10:10.766Z,20.62
2022-07-27T18:13:03.807Z,20.49
2022-07-27T18:15:51.171Z,20.45
2022-07-27T18:18:33.018Z,20.46
2022-07-27T18:21:15.027Z,20.49
2022-07-27T18:23:54.779Z,20.49
2022-07-27T18:26:34.592Z,20.39
2022-07-27T18:29:25.604Z,20.40
2022-07-27T18:32:05.967Z,20.33
2022-07-27T18:34:45.407Z,20.33
2022-07-27T18:37:30.436Z,20.29
2022-07-27T18:40:22.607Z,20.22
2022-07-27T18:43:05.629Z,20.15
2022-07-27T18:45:47.078Z,20.11
2022-07-27T18:48:27.530Z,20.03
2022-07-27T18:51:21.915Z,19.93
2022-07-27T18:54:01.973Z,19.86
2022-07-27T18:56:42.856Z,19.74
2022-07-27T18:59:23.356Z,19.65
2022-07-27T19:02:05.164Z,19.61
2022-07-27T19:04:46.845Z,19.51
2022-07-27T19:07:30.772Z,19.44
2022-07-27T19:10:32.848Z,19.35
2022-07-27T19:13:13.402Z,19.21
2022-07-27T19:15:54.116Z,19.10
2022-07-27T19:18:36.061Z,18.97
2022-07-27T19:21:16.532Z,18.94
2022-07-27T19:23:56.750Z,18.75
2022-07-27T19:26:37.124Z,18.66
2022-07-27T19:29:17.953Z,18.63
2022-07-27T19:31:57.778Z,18.51
2022-07-27T19:34:45.768Z,18.41
2022-07-27T19:37:31.733Z,18.29
2022-07-27T19:40:42.812Z,18.24
2022-07-27T19:43:14.673Z,18.15
2022-07-27T19:45:55.347Z,18.03
2022-07-27T19:48:33.787Z,18.00
2022-07-27T19:51:11.959Z,17.98
2022-07-27T19:53:51.676Z,17.93
2022-07-27T19:56:35.385Z,17.79
2022-07-27T19:59:17.401Z,17.75
2022-07-27T20:02:10.766Z,17.69
2022-07-27T20:04:50.411Z,17.51
2022-07-27T20:07:28.993Z,17.44
2022-07-27T20:10:09.503Z,17.38
2022-07-27T20:12:49.850Z,17.23
2022-07-27T20:15:30.128Z,17.18
2022-07-27T20:18:09.604Z,17.12
2022-07-27T20:20:50.275Z,17.09
2022-07-27T20:23:30.696Z,16.95
2022-07-27T20:26:12.233Z,16.87
2022-07-27T20:28:52.002Z,16.78
2022-07-27T20:31:31.739Z,16.76
2022-07-27T20:34:11.531Z,16.74
2022-07-27T20:36:51.964Z,16.67
2022-07-27T20:39:33.069Z,16.66
2022-07-27T20:42:12.563Z,16.62
2022-07-27T20:44:51.080Z,16.58
2022-07-27T20:47:34.512Z,16.54
2022-07-27T20:50:15.659Z,16.49
2022-07-27T20:52:55.006Z,16.36
2022-07-27T20:55:35.087Z,16.30
2022-07-27T20:58:16.595Z,16.20
2022-07-27T21:00:55.980Z,16.18
2022-07-27T21:03:38.276Z,16.10
2022-07-27T21:06:18.778Z,16.07
2022-07-27T21:08:58.665Z,15.90
2022-07-27T21:11:38.519Z,15.92
2022-07-27T21:24:41.876Z,15.62
2022-07-27T21:27:24.449Z,15.58
2022-07-27T21:30:05.358Z,15.56
2022-07-27T21:32:45.839Z,15.51
2022-07-27T21:35:25.326Z,15.45
2022-07-27T21:38:07.141Z,15.41
2022-07-27T21:40:48.445Z,15.39
2022-07-27T21:43:27.866Z,15.35
2022-07-27T21:46:08.040Z,15.22
2022-07-27T21:48:50.653Z,15.22
2022-07-27T21:51:34.631Z,15.17
2022-07-27T21:54:19.159Z,15.13
2022-07-27T21:57:01.600Z,15.09
2022-07-27T21:59:43.020Z,15.02
2022-07-27T22:02:22.791Z,14.97
2022-07-27T22:05:09.607Z,14.92
2022-07-27T22:08:00.853Z,14.83
2022-07-27T22:10:55.126Z,14.80
2022-07-27T22:13:35.285Z,14.79
2022-07-27T22:16:16.659Z,14.72
2022-07-27T22:19:00.113Z,14.70
2022-07-27T22:21:45.426Z,14.67
2022-07-27T22:24:25.360Z,14.66
2022-07-27T22:27:05.786Z,14.61
2022-07-27T22:29:48.116Z,14.46
2022-07-27T22:32:29.645Z,14.45
2022-07-27T22:35:11.428Z,14.40
2022-07-27T22:37:50.817Z,14.30
2022-07-27T22:40:29.323Z,14.31
2022-07-27T22:43:08.809Z,14.30
2022-07-27T22:45:51.807Z,14.28
2022-07-27T22:48:31.633Z,14.24
2022-07-27T22:51:11.343Z,14.21
2022-07-27T22:53:49.875Z,14.19
2022-07-27T22:56:29.339Z,14.16
2022-07-27T22:59:10.721Z,14.12
2022-07-27T23:01:49.317Z,14.10
2022-07-27T23:04:28.777Z,14.05
2022-07-27T23:07:10.634Z,14.02
2022-07-27T23:09:57.077Z,13.96
2022-07-27T23:12:39.760Z,13.93
2022-07-27T23:15:19.254Z,13.88
2022-07-27T23:17:59.010Z,13.84
2022-07-27T23:20:40.898Z,13.76
2022-07-27T23:23:22.279Z,13.67
2022-07-27T23:26:08.412Z,13.64
2022-07-27T23:28:49.450Z,13.61
2022-07-27T23:31:28.066Z,13.61
2022-07-27T23:34:07.677Z,13.54
2022-07-27T23:36:47.532Z,13.47
2022-07-27T23:39:28.737Z,13.50
2022-07-27T23:42:08.835Z,13.43
2022-07-27T23:44:47.029Z,13.36
2022-07-27T23:47:25.369Z,13.23
2022-07-27T23:50:05.363Z,13.26
2022-07-27T23:53:05.080Z,13.22
2022-07-27T23:55:50.325Z,13.14
2022-07-27T23:58:29.815Z,13.14
